createdAt,value
2023-04-10T00:01:36.957Z,10.90
2023-04-10T00:04:06.174Z,10.80
2023-04-10T00:06:35.125Z,10.80
2023-04-10T00:09:03.267Z,10.80
2023-04-10T00:11:31.827Z,10.70
2023-04-10T00:14:00.370Z,10.70
2023-04-10T00:16:29.994Z,10.70
2023-04-10T00:18:58.526Z,10.70
2023-04-10T00:21:27.743Z,10.70
2023-04-10T00:23:55.916Z,10.60
2023-04-10T00:26:24.752Z,10.60
2023-04-10T00:28:53.272Z,10.60
2023-04-10T00:31:21.391Z,10.60
2023-04-10T00:33:51.538Z,10.60
2023-04-10T00:36:20.598Z,10.50
2023-04-10T00:38:49.738Z,10.50
2023-04-10T00:41:18.589Z,10.50
2023-04-10T00:43:47.043Z,10.40
2023-04-10T00:46:15.924Z,10.40
2023-04-10T00:48:44.513Z,10.40
2023-04-10T00:51:14.054Z,10.40
2023-04-10T00:53:42.638Z,10.40
2023-04-10T00:56:11.131Z,10.40
2023-04-10T00:58:39.929Z,10.30
2023-04-10T01:01:08.682Z,10.30
2023-04-10T01:03:38.145Z,10.30
2023-04-10T01:06:13.800Z,10.30
2023-04-10T01:08:50.979Z,10.30
2023-04-10T01:11:28.116Z,10.20
2023-04-10T01:14:03.234Z,10.20
2023-04-10T01:16:38.287Z,10.20
2023-04-10T01:19:14.185Z,10.10
2023-04-10T01:21:43.982Z,10.10
2023-04-10T01:24:50.331Z,11.50
2023-04-10T01:27:34.139Z,10.00
2023-04-10T01:30:05.217Z,10.00
2023-04-10T01:32:36.694Z,10.00
2023-04-10T01:35:09.156Z,9.90
2023-04-10T01:37:42.832Z,9.90
2023-04-10T01:40:15.508Z,9.90
2023-04-10T01:42:48.714Z,9.90
2023-04-10T01:45:21.431Z,9.80
2023-04-10T01:47:50.265Z,9.80
2023-04-10T01:50:18.853Z,9.80
2023-04-10T01:52:49.152Z,9.80
2023-04-10T01:55:17.589Z,9.70
2023-04-10T01:57:49.393Z,9.70
2023-04-10T02:00:18.924Z,9.70
2023-04-10T02:02:47.724Z,9.60
2023-04-10T02:05:17.936Z,9.60
2023-04-10T02:07:52.282Z,9.50
2023-04-10T02:10:26.136Z,9.50
2023-04-10T02:12:57.192Z,9.40
2023-04-10T02:15:29.462Z,9.40
2023-04-10T02:17:59.869Z,9.40
2023-04-10T02:20:28.687Z,9.40
2023-04-10T02:22:59.573Z,9.30
2023-04-10T02:25:28.190Z,9.30
2023-04-10T02:27:56.232Z,9.40
2023-04-10T02:30:25.289Z,9.30
2023-04-10T02:32:55.810Z,9.30
2023-04-10T02:35:23.851Z,9.30
2023-04-10T02:37:52.360Z,9.30
2023-04-10T02:40:20.861Z,9.30
2023-04-10T02:42:49.344Z,9.20
2023-04-10T02:45:17.493Z,9.20
2023-04-10T02:47:46.040Z,9.20
2023-04-10T02:50:17.900Z,9.20
2023-04-10T02:52:45.960Z,9.20
2023-04-10T02:55:14.685Z,9.10
2023-04-10T02:57:44.058Z,9.00
2023-04-10T03:00:13.158Z,9.00
2023-04-10T03:02:41.832Z,8.90
2023-04-10T03:05:11.950Z,8.90
2023-04-10T03:07:41.538Z,8.90
2023-04-10T03:10:11.292Z,8.80
2023-04-10T03:12:39.330Z,8.80
2023-04-10T03:15:09.192Z,8.80
2023-04-10T03:17:37.720Z,8.80
2023-04-10T03:20:06.947Z,8.80
2023-04-10T03:22:35.580Z,8.80
2023-04-10T03:25:05.753Z,8.80
2023-04-10T03:27:35.339Z,8.90
2023-04-10T03:30:04.146Z,8.90
2023-04-10T03:32:32.231Z,8.90
2023-04-10T03:35:00.932Z,8.90
2023-04-10T03:37:29.014Z,8.90
2023-04-10T03:39:58.006Z,8.90
2023-04-10T03:42:27.565Z,8.80
2023-04-10T03:44:55.638Z,8.80
2023-04-10T03:47:23.737Z,8.80
2023-04-10T03:49:51.880Z,8.80
2023-04-10T03:52:19.890Z,8.70
2023-04-10T03:54:48.414Z,8.70
2023-04-10T03:57:19.115Z,8.70
2023-04-10T03:59:48.987Z,8.70
2023-04-10T04:02:17.710Z,8.60
2023-04-10T04:04:46.551Z,8.60
2023-04-10T04:07:15.149Z,8.50
2023-04-10T04:09:43.911Z,8.40
2023-04-10T04:12:12.456Z,8.30
2023-04-10T04:14:40.618Z,8.30
2023-04-10T04:17:11.085Z,8.20
2023-04-10T04:19:39.112Z,8.10
2023-04-10T04:22:07.726Z,8.10
2023-04-10T04:24:36.276Z,8.10
2023-04-10T04:27:04.824Z,8.10
2023-04-10T04:29:32.846Z,8.10
2023-04-10T04:32:01.402Z,8.10
2023-04-10T04:34:30.846Z,8.10
2023-04-10T04:36:58.921Z,8.10
2023-04-10T04:39:26.964Z,8.10
2023-04-10T04:41:55.506Z,8.10
2023-04-10T04:44:23.697Z,8.10
2023-04-10T04:46:52.359Z,8.10
2023-04-10T04:49:20.976Z,8.10
2023-04-10T04:51:50.384Z,8.10
2023-04-10T04:54:18.915Z,8.10
2023-04-10T04:56:46.967Z,8.10
2023-04-10T04:59:15.496Z,8.00
2023-04-10T05:01:44.253Z,8.00
2023-04-10T05:04:13.170Z,7.90
2023-04-10T05:06:41.857Z,7.90
2023-04-10T05:09:11.616Z,7.80
2023-04-10T05:11:39.685Z,7.80
2023-04-10T05:14:09.253Z,7.80
2023-04-10T05:16:37.315Z,7.70
2023-04-10T05:19:05.900Z,7.70
2023-04-10T05:21:34.424Z,7.70
2023-04-10T05:24:02.469Z,7.70
2023-04-10T05:26:32.370Z,7.70
2023-04-10T05:29:00.425Z,7.70
2023-04-10T05:31:29.023Z,7.70
2023-04-10T05:33:57.591Z,7.60
2023-04-10T05:36:25.645Z,7.60
2023-04-10T05:38:54.343Z,7.60
2023-04-10T05:41:22.872Z,7.60
2023-04-10T05:43:52.770Z,7.70
2023-04-10T05:46:21.283Z,7.60
2023-04-10T05:48:50.656Z,7.60
2023-04-10T05:51:18.752Z,7.60
2023-04-10T05:53:47.251Z,7.60
2023-04-10T05:56:15.268Z,7.60
2023-04-10T05:58:43.785Z,7.70
2023-04-10T06:01:13.987Z,7.70
2023-04-10T06:03:42.227Z,7.70
2023-04-10T06:06:10.930Z,7.70
2023-04-10T06:08:39.037Z,7.70
2023-04-10T06:11:07.898Z,7.70
2023-04-10T06:13:36.094Z,7.70
2023-04-10T06:16:04.900Z,7.80
2023-04-10T06:18:34.381Z,7.80
2023-04-10T06:21:03.317Z,7.80
2023-04-10T06:23:31.363Z,7.90
2023-04-10T06:25:59.954Z,7.90
2023-04-10T06:28:28.649Z,8.00
2023-04-10T06:30:57.473Z,8.00
2023-04-10T06:33:26.495Z,8.10
2023-04-10T06:35:56.059Z,8.20
2023-04-10T06:38:24.716Z,8.30
2023-04-10T06:40:52.745Z,8.30
2023-04-10T06:43:20.790Z,8.40
2023-04-10T06:45:49.391Z,8.50
2023-04-10T06:48:17.893Z,8.60
2023-04-10T06:50:46.598Z,8.70
2023-04-10T06:53:17.400Z,8.70
2023-04-10T06:55:45.442Z,8.90
2023-04-10T06:58:14.005Z,8.90
2023-04-10T07:00:42.774Z,9.00
2023-04-10T07:03:11.178Z,9.10
2023-04-10T07:05:42.107Z,9.10
2023-04-10T07:08:10.564Z,9.20
2023-04-10T07:10:39.995Z,9.30
2023-04-10T07:13:08.099Z,9.30
2023-04-10T07:15:36.309Z,9.40
2023-04-10T07:18:04.616Z,9.50
2023-04-10T07:20:33.138Z,9.50
2023-04-10T07:23:01.397Z,9.60
2023-04-10T07:25:29.480Z,9.70
2023-04-10T07:27:58.934Z,9.70
2023-04-10T07:30:27.568Z,9.80
2023-04-10T07:32:56.218Z,9.90
2023-04-10T07:35:24.880Z,9.90
2023-04-10T07:37:54.644Z,10.00
2023-04-10T07:40:23.216Z,10.10
2023-04-10T07:42:53.787Z,10.10
2023-04-10T07:45:24.236Z,10.20
2023-04-10T07:47:52.824Z,10.20
2023-04-10T07:50:21.026Z,10.30
2023-04-10T07:52:50.149Z,10.40
2023-04-10T07:55:18.381Z,10.40
2023-04-10T07:57:47.153Z,10.50
2023-04-10T08:00:16.238Z,10.60
2023-04-10T08:02:46.227Z,10.60
2023-04-10T08:05:14.429Z,10.70
2023-04-10T08:07:43.102Z,10.80
2023-04-10T08:10:12.157Z,10.80
2023-04-10T08:12:40.214Z,10.90
2023-04-10T08:15:09.564Z,11.00
2023-04-10T08:17:38.171Z,11.00
2023-04-10T08:20:09.872Z,11.10
2023-04-10T08:22:37.927Z,11.10
2023-04-10T08:25:07.595Z,11.20
2023-04-10T08:27:35.626Z,11.30
2023-04-10T08:30:04.166Z,11.30
2023-04-10T08:32:32.766Z,11.30
2023-04-10T08:35:01.282Z,11.40
2023-04-10T08:37:31.209Z,11.50
2023-04-10T08:39:59.781Z,11.50
2023-04-10T08:42:28.426Z,11.60
2023-04-10T08:44:56.513Z,11.60
2023-04-10T08:47:29.399Z,11.70
2023-04-10T08:49:59.216Z,11.70
2023-04-10T08:52:31.676Z,11.80
2023-04-10T08:55:03.634Z,11.90
2023-04-10T08:57:32.555Z,11.90
2023-04-10T09:00:06.679Z,12.00
2023-04-10T09:02:44.633Z,12.00
2023-04-10T09:05:14.516Z,12.10
2023-04-10T09:07:42.541Z,12.20
2023-04-10T09:10:12.690Z,12.20
2023-04-10T09:12:47.499Z,12.30
2023-04-10T09:15:17.047Z,12.40
2023-04-10T09:17:59.938Z,12.40
2023-04-10T09:20:30.479Z,12.50
2023-04-10T09:22:59.087Z,12.50
2023-04-10T09:25:34.655Z,12.60
2023-04-10T09:28:07.652Z,12.60
2023-04-10T09:30:38.063Z,12.70
2023-04-10T09:33:23.205Z,12.70
2023-04-10T09:35:52.173Z,12.80
2023-04-10T09:38:21.806Z,12.80
2023-04-10T09:40:53.646Z,12.90
2023-04-10T09:43:24.507Z,12.90
2023-04-10T09:45:54.213Z,13.00
2023-04-10T09:48:22.882Z,13.10
2023-04-10T09:50:51.940Z,13.10
2023-04-10T09:53:21.060Z,13.20
2023-04-10T09:55:52.139Z,13.20
2023-04-10T09:58:20.696Z,13.30
2023-04-10T10:00:51.052Z,13.40
2023-04-10T10:03:21.572Z,13.40
2023-04-10T10:05:51.318Z,13.50
2023-04-10T10:08:20.054Z,13.60
2023-04-10T10:10:52.388Z,13.60
2023-04-10T10:13:29.433Z,13.70
2023-04-10T10:16:05.773Z,13.80
2023-04-10T10:18:40.994Z,13.90
2023-04-10T10:21:10.960Z,14.00
2023-04-10T10:23:40.274Z,14.10
2023-04-10T10:26:12.007Z,14.20
2023-04-10T10:28:43.174Z,14.30
2023-04-10T10:31:12.343Z,14.30
2023-04-10T10:33:41.624Z,14.40
2023-04-10T10:36:11.473Z,14.50
2023-04-10T10:38:43.362Z,14.60
2023-04-10T10:41:19.446Z,14.70
2023-04-10T10:43:55.390Z,14.80
2023-04-10T10:46:34.192Z,14.90
2023-04-10T10:49:02.822Z,15.00
2023-04-10T10:51:47.829Z,15.10
2023-04-10T10:54:33.160Z,15.30
2023-04-10T10:57:06.414Z,15.40
2023-04-10T10:59:57.769Z,15.50
2023-04-10T11:02:26.263Z,15.60
2023-04-10T11:04:54.920Z,15.70
2023-04-10T11:07:23.091Z,15.80
2023-04-10T11:09:53.629Z,15.90
2023-04-10T11:12:24.218Z,15.90
2023-04-10T11:15:01.160Z,16.10
2023-04-10T11:17:49.475Z,16.20
2023-04-10T11:20:18.428Z,16.30
2023-04-10T11:23:08.397Z,16.40
2023-04-10T11:25:53.145Z,16.60
2023-04-10T11:28:40.706Z,16.70
2023-04-10T11:31:20.367Z,16.80
2023-04-10T11:33:49.614Z,17.00
2023-04-10T11:36:19.302Z,17.10
2023-04-10T11:38:57.669Z,17.20
2023-04-10T11:41:31.055Z,17.30
2023-04-10T11:44:01.916Z,17.50
2023-04-10T11:46:30.427Z,17.60
2023-04-10T11:49:01.847Z,17.70
2023-04-10T11:51:31.064Z,17.80
2023-04-10T11:54:08.088Z,17.90
2023-04-10T11:56:37.414Z,18.10
2023-04-10T11:59:11.424Z,18.20
2023-04-10T12:01:42.506Z,18.30
2023-04-10T12:04:18.759Z,18.50
2023-04-10T12:06:48.438Z,18.60
2023-04-10T12:09:17.580Z,18.70
2023-04-10T12:11:53.541Z,18.80
2023-04-10T12:14:24.122Z,18.80
2023-04-10T12:16:53.189Z,18.90
2023-04-10T12:19:23.087Z,19.00
2023-04-10T12:21:51.839Z,19.10
2023-04-10T12:24:44.453Z,19.10
2023-04-10T12:27:18.952Z,19.20
2023-04-10T12:29:49.264Z,19.30
2023-04-10T12:32:17.960Z,19.30
2023-04-10T12:34:52.058Z,19.40
2023-04-10T12:37:21.223Z,19.50
2023-04-10T12:39:49.472Z,19.60
2023-04-10T12:42:19.857Z,19.60
2023-04-10T12:44:56.941Z,19.70
2023-04-10T12:47:25.970Z,19.80
2023-04-10T12:50:12.778Z,20.00
2023-04-10T12:52:42.785Z,20.10
2023-04-10T12:55:12.447Z,20.30
2023-04-10T12:57:41.871Z,20.40
2023-04-10T13:00:13.660Z,20.50
2023-04-10T13:02:42.787Z,20.70
2023-04-10T13:05:11.572Z,20.80
2023-04-10T13:07:40.803Z,20.90
2023-04-10T13:10:10.212Z,21.10
2023-04-10T13:12:39.510Z,21.20
2023-04-10T13:15:08.434Z,21.30
2023-04-10T13:17:38.360Z,21.40
2023-04-10T13:20:07.532Z,21.50
2023-04-10T13:22:35.945Z,21.40
2023-04-10T13:25:05.339Z,21.80
2023-04-10T13:27:33.380Z,21.90
2023-04-10T13:30:01.461Z,22.10
2023-04-10T13:32:30.432Z,22.20
2023-04-10T13:34:59.920Z,22.40
2023-04-10T13:37:28.429Z,22.50
2023-04-10T13:39:56.717Z,22.70
2023-04-10T13:42:25.265Z,22.80
2023-04-10T13:44:53.338Z,22.90
2023-04-10T13:47:21.360Z,23.00
2023-04-10T13:49:49.914Z,23.20
2023-04-10T13:52:19.341Z,23.30
2023-04-10T13:54:47.651Z,23.40
2023-04-10T13:57:15.696Z,23.50
2023-04-10T13:59:44.215Z,23.60
2023-04-10T14:02:12.293Z,23.70
2023-04-10T14:04:41.624Z,23.80
2023-04-10T14:07:11.062Z,23.90
2023-04-10T14:09:40.751Z,24.00
2023-04-10T14:12:09.304Z,24.00
2023-04-10T14:14:37.797Z,24.10
2023-04-10T14:17:05.934Z,24.20
2023-04-10T14:19:36.543Z,24.30
2023-04-10T14:22:04.543Z,24.40
2023-04-10T14:24:32.620Z,24.50
2023-04-10T14:27:02.359Z,24.60
2023-04-10T14:29:36.381Z,24.60
2023-04-10T14:32:08.759Z,24.60
2023-04-10T14:34:37.323Z,24.60
2023-04-10T14:37:05.468Z,24.60
2023-04-10T14:39:34.400Z,24.50
2023-04-10T14:42:03.833Z,24.50
2023-04-10T14:44:33.332Z,24.40
2023-04-10T14:47:01.381Z,24.40
2023-04-10T14:49:29.904Z,24.30
2023-04-10T14:51:58.428Z,24.20
2023-04-10T14:54:26.984Z,24.10
2023-04-10T14:56:55.007Z,24.10
2023-04-10T14:59:24.919Z,24.00
2023-04-10T15:01:54.050Z,23.90
2023-04-10T15:04:22.887Z,23.80
2023-04-10T15:06:51.892Z,23.80
2023-04-10T15:09:21.969Z,23.70
2023-04-10T15:11:50.127Z,23.60
2023-04-10T15:14:18.674Z,23.50
2023-04-10T15:16:48.474Z,23.40
2023-04-10T15:19:17.084Z,23.30
2023-04-10T15:21:45.534Z,23.20
2023-04-10T15:24:14.098Z,23.10
2023-04-10T15:26:45.550Z,23.10
2023-04-10T15:29:14.446Z,23.00
2023-04-10T15:31:42.626Z,22.90
2023-04-10T15:34:12.543Z,22.70
2023-04-10T15:36:41.294Z,22.70
2023-04-10T15:39:09.367Z,22.60
2023-04-10T15:41:37.870Z,22.50
2023-04-10T15:44:06.716Z,22.50
2023-04-10T15:46:35.277Z,22.40
2023-04-10T15:49:03.812Z,22.30
2023-04-10T15:51:33.253Z,22.30
2023-04-10T15:54:03.741Z,22.30
2023-04-10T15:56:32.276Z,22.30
2023-04-10T15:59:00.301Z,22.30
2023-04-10T16:01:29.925Z,22.20
2023-04-10T16:03:58.122Z,22.20
2023-04-10T16:06:28.295Z,22.20
2023-04-10T16:08:57.696Z,22.10
2023-04-10T16:11:26.215Z,22.10
2023-04-10T16:13:54.382Z,22.00
2023-04-10T16:16:24.199Z,21.90
2023-04-10T16:18:54.233Z,21.80
2023-04-10T16:21:22.832Z,21.70
2023-04-10T16:23:53.911Z,21.60
2023-04-10T16:26:23.476Z,21.50
2023-04-10T16:28:53.400Z,21.50
2023-04-10T16:31:25.017Z,21.40
2023-04-10T16:33:53.140Z,21.30
2023-04-10T16:36:21.198Z,21.20
2023-04-10T16:38:50.408Z,21.10
2023-04-10T16:41:20.474Z,21.00
2023-04-10T16:43:50.374Z,20.90
2023-04-10T16:46:19.846Z,20.90
2023-04-10T16:48:48.362Z,20.80
2023-04-10T16:51:17.626Z,20.70
2023-04-10T16:53:46.627Z,20.60
2023-04-10T16:56:15.151Z,20.50
2023-04-10T16:58:43.219Z,20.50
2023-04-10T17:01:18.342Z,20.40
2023-04-10T17:03:47.422Z,20.30
2023-04-10T17:06:16.722Z,20.30
2023-04-10T17:08:44.800Z,20.20
2023-04-10T17:11:13.541Z,20.10
2023-04-10T17:13:42.152Z,20.10
2023-04-10T17:16:10.727Z,20.00
2023-04-10T17:18:40.177Z,19.90
2023-04-10T17:21:12.602Z,19.90
2023-04-10T17:23:40.891Z,19.80
2023-04-10T17:26:14.567Z,19.80
2023-04-10T17:28:44.861Z,19.70
2023-04-10T17:31:13.788Z,19.60
2023-04-10T17:33:43.796Z,19.60
2023-04-10T17:36:12.817Z,19.50
2023-04-10T17:38:41.289Z,19.40
2023-04-10T17:41:10.738Z,19.40
2023-04-10T17:43:38.947Z,19.30
2023-04-10T17:46:08.128Z,19.30
2023-04-10T17:48:36.721Z,19.20
2023-04-10T17:51:08.250Z,19.10
2023-04-10T17:53:36.891Z,19.10
2023-04-10T17:56:05.701Z,19.00
2023-04-10T17:58:33.728Z,18.90
2023-04-10T18:01:02.534Z,18.90
2023-04-10T18:03:31.203Z,18.80
2023-04-10T18:05:59.776Z,18.70
2023-04-10T18:08:29.533Z,18.70
2023-04-10T18:10:58.624Z,18.60
2023-04-10T18:13:27.162Z,18.60
2023-04-10T18:15:55.657Z,18.50
2023-04-10T18:18:23.715Z,18.40
2023-04-10T18:20:52.236Z,18.40
2023-04-10T18:23:20.321Z,18.30
2023-04-10T18:25:55.444Z,18.30
2023-04-10T18:28:23.842Z,18.20
2023-04-10T18:30:54.299Z,18.10
2023-04-10T18:33:24.196Z,18.10
2023-04-10T18:35:53.096Z,18.00
2023-04-10T18:38:21.167Z,18.00
2023-04-10T18:40:49.694Z,17.90
2023-04-10T18:43:19.141Z,17.90
2023-04-10T18:45:47.690Z,17.90
2023-04-10T18:48:16.459Z,17.80
2023-04-10T18:50:44.535Z,17.80
2023-04-10T18:53:13.243Z,17.70
2023-04-10T18:55:41.331Z,17.70
2023-04-10T18:58:09.365Z,17.70
2023-04-10T19:00:39.269Z,17.60
2023-04-10T19:03:07.398Z,17.60
2023-04-10T19:05:36.015Z,17.60
2023-04-10T19:08:04.987Z,17.50
2023-04-10T19:10:33.799Z,17.50
2023-04-10T19:13:01.903Z,17.40
2023-04-10T19:15:30.500Z,17.40
2023-04-10T19:18:00.496Z,17.40
2023-04-10T19:20:50.268Z,17.40
2023-04-10T19:23:17.149Z,17.30
2023-04-10T19:25:45.395Z,17.30
2023-04-10T19:28:14.291Z,17.30
2023-04-10T19:30:42.395Z,17.20
2023-04-10T19:33:12.293Z,17.20
2023-04-10T19:35:40.904Z,17.20
2023-04-10T19:38:09.012Z,17.10
2023-04-10T19:40:37.487Z,17.10
2023-04-10T19:43:05.628Z,17.00
2023-04-10T19:45:38.617Z,17.00
2023-04-10T19:48:08.025Z,16.90
2023-04-10T19:50:37.442Z,16.90
2023-04-10T19:53:06.145Z,16.90
2023-04-10T19:55:35.042Z,16.80
2023-04-10T19:58:03.610Z,16.80
2023-04-10T20:00:31.708Z,16.70
2023-04-10T20:03:01.482Z,16.70
2023-04-10T20:05:30.636Z,16.70
2023-04-10T20:08:00.119Z,16.60
2023-04-10T20:10:28.191Z,16.60
2023-04-10T20:12:57.795Z,16.60
2023-04-10T20:15:26.352Z,16.50
2023-04-10T20:17:54.442Z,16.50
2023-04-10T20:20:23.096Z,16.50
2023-04-10T20:22:51.571Z,16.50
2023-04-10T20:25:21.014Z,16.50
2023-04-10T20:27:49.547Z,16.40
2023-04-10T20:30:17.762Z,16.40
2023-04-10T20:32:47.406Z,16.30
2023-04-10T20:35:15.531Z,16.30
2023-04-10T20:37:44.490Z,16.20
2023-04-10T20:40:12.802Z,16.20
2023-04-10T20:42:44.435Z,16.20
2023-04-10T20:45:13.158Z,16.20
2023-04-10T20:47:41.995Z,16.20
2023-04-10T20:50:12.740Z,16.10
2023-04-10T20:52:41.241Z,16.10
2023-04-10T20:55:10.505Z,16.10
2023-04-10T20:57:38.729Z,16.10
2023-04-10T21:00:10.362Z,16.10
2023-04-10T21:02:39.093Z,16.00
2023-04-10T21:05:08.049Z,16.00
2023-04-10T21:07:36.727Z,16.00
2023-04-10T21:10:05.302Z,16.00
2023-04-10T21:12:33.389Z,15.90
2023-04-10T21:15:01.421Z,15.90
2023-04-10T21:17:32.378Z,15.90
2023-04-10T21:20:01.250Z,15.90
2023-04-10T21:22:29.577Z,15.80
2023-04-10T21:24:58.311Z,15.80
2023-04-10T21:27:26.493Z,15.80
2023-04-10T21:29:54.579Z,15.80
2023-04-10T21:32:23.109Z,15.80
2023-04-10T21:34:52.743Z,15.80
2023-04-10T21:37:21.258Z,15.70
2023-04-10T21:39:49.761Z,15.70
2023-04-10T21:42:19.313Z,15.70
2023-04-10T21:44:47.403Z,15.70
2023-04-10T21:47:15.927Z,15.60
2023-04-10T21:49:44.439Z,15.60
2023-04-10T21:52:13.867Z,15.60
2023-04-10T21:54:42.424Z,15.60
2023-04-10T21:57:10.483Z,15.50
2023-04-10T21:59:38.994Z,15.50
2023-04-10T22:02:07.589Z,15.50
2023-04-10T22:04:41.495Z,15.50
2023-04-10T22:07:17.328Z,15.40
2023-04-10T22:09:45.853Z,15.40
2023-04-10T22:12:13.907Z,15.40
2023-04-10T22:14:42.934Z,15.40
2023-04-10T22:17:11.552Z,15.40
2023-04-10T22:19:39.648Z,15.40
2023-04-10T22:22:08.137Z,15.30
2023-04-10T22:24:38.076Z,15.30
2023-04-10T22:27:06.095Z,15.30
2023-04-10T22:29:36.039Z,15.30
2023-04-10T22:32:04.292Z,15.30
2023-04-10T22:34:33.625Z,15.30
2023-04-10T22:37:02.194Z,15.20
2023-04-10T22:39:30.304Z,15.20
2023-04-10T22:42:00.206Z,15.20
2023-04-10T22:44:28.693Z,15.20
2023-04-10T22:46:56.745Z,15.20
2023-04-10T22:49:25.312Z,15.20
2023-04-10T22:51:53.382Z,15.20
2023-04-10T22:54:21.407Z,15.20
2023-04-10T22:56:50.818Z,15.10
2023-04-10T22:59:20.225Z,15.10
2023-04-10T23:01:48.847Z,15.10
2023-04-10T23:04:17.567Z,15.10
2023-04-10T23:06:46.123Z,15.10
2023-04-10T23:09:14.261Z,15.10
2023-04-10T23:11:42.922Z,15.10
2023-04-10T23:14:11.061Z,15.10
2023-04-10T23:16:41.209Z,15.10
2023-04-10T23:19:09.277Z,15.10
2023-04-10T23:21:37.823Z,15.10
2023-04-10T23:24:06.424Z,15.10
2023-04-10T23:26:34.627Z,15.10
2023-04-10T23:29:03.157Z,15.10
2023-04-10T23:31:31.712Z,15.00
2023-04-10T23:34:01.708Z,15.00
2023-04-10T23:36:30.350Z,15.00
2023-04-10T23:38:58.407Z,15.00
2023-04-10T23:41:26.996Z,15.00
2023-04-10T23:43:55.492Z,15.00
2023-04-10T23:46:23.557Z,15.00
2023-04-10T23:48:52.313Z,15.00
2023-04-10T23:51:22.348Z,15.00
2023-04-10T23:53:50.385Z,15.00
2023-04-10T23:56:18.880Z,15.00
2023-04-10T23:58:46.908Z,15.00
